sensor_id;sensor_type;location;lat;lon;timestamp;P1;durP1;ratioP1;P2;durP2;ratioP2
45049;SDS011;61798;48.048;-1.928;2022-07-21T00:01:04;8.75;;;4.25;;
45049;SDS011;61798;48.048;-1.928;2022-07-21T00:03:10;8.18;;;4.32;;
45049;SDS011;61798;48.048;-1.928;2022-07-21T00:05:17;8.40;;;4.20;;
45049;SDS011;61798;48.048;-1.928;2022-07-21T00:07:24;8.98;;;4.53;;
45049;SDS011;61798;48.048;-1.928;2022-07-21T00:09:30;8.48;;;4.75;;
45049;SDS011;61798;48.048;-1.928;2022-07-21T00:11:36;10.13;;;4.63;;
45049;SDS011;61798;48.048;-1.928;2022-07-21T00:13:43;12.82;;;5.28;;
45049;SDS011;61798;48.048;-1.928;2022-07-21T00:15:50;10.25;;;5.20;;
45049;SDS011;61798;48.048;-1.928;2022-07-21T00:17:56;13.55;;;6.47;;
45049;SDS011;61798;48.048;-1.928;2022-07-21T00:20:03;9.60;;;5.18;;
45049;SDS011;61798;48.048;-1.928;2022-07-21T00:22:11;12.35;;;5.70;;
45049;SDS011;61798;48.048;-1.928;2022-07-21T00:24:17;11.60;;;5.75;;
45049;SDS011;61798;48.048;-1.928;2022-07-21T00:26:23;13.02;;;5.57;;
45049;SDS011;61798;48.048;-1.928;2022-07-21T00:28:29;10.32;;;5.30;;
45049;SDS011;61798;48.048;-1.928;2022-07-21T00:30:35;8.25;;;5.07;;
45049;SDS011;61798;48.048;-1.928;2022-07-21T00:32:41;10.77;;;5.63;;
45049;SDS011;61798;48.048;-1.928;2022-07-21T00:34:48;10.40;;;5.38;;
45049;SDS011;61798;48.048;-1.928;2022-07-21T00:36:54;8.93;;;5.03;;
45049;SDS011;61798;48.048;-1.928;2022-07-21T00:39:00;7.75;;;4.60;;
45049;SDS011;61798;48.048;-1.928;2022-07-21T00:41:06;13.25;;;5.57;;
45049;SDS011;61798;48.048;-1.928;2022-07-21T00:43:12;11.15;;;5.57;;
45049;SDS011;61798;48.048;-1.928;2022-07-21T00:45:18;12.57;;;5.50;;
45049;SDS011;61798;48.048;-1.928;2022-07-21T00:47:25;10.70;;;5.55;;
45049;SDS011;61798;48.048;-1.928;2022-07-21T00:49:33;10.95;;;5.32;;
45049;SDS011;61798;48.048;-1.928;2022-07-21T00:51:38;9.25;;;5.80;;
45049;SDS011;61798;48.048;-1.928;2022-07-21T00:53:44;8.23;;;5.20;;
45049;SDS011;61798;48.048;-1.928;2022-07-21T00:55:50;10.57;;;5.38;;
45049;SDS011;61798;48.048;-1.928;2022-07-21T00:58:10;9.95;;;5.40;;
45049;SDS011;61798;48.048;-1.928;2022-07-21T01:00:20;10.85;;;5.80;;
45049;SDS011;61798;48.048;-1.928;2022-07-21T01:02:30;14.88;;;6.47;;
45049;SDS011;61798;48.048;-1.928;2022-07-21T01:04:38;8.65;;;5.60;;
45049;SDS011;61798;48.048;-1.928;2022-07-21T01:06:45;12.45;;;6.18;;
45049;SDS011;61798;48.048;-1.928;2022-07-21T01:08:51;12.23;;;6.15;;
45049;SDS011;61798;48.048;-1.928;2022-07-21T01:10:59;14.90;;;6.63;;
45049;SDS011;61798;48.048;-1.928;2022-07-21T01:13:08;12.35;;;6.97;;
45049;SDS011;61798;48.048;-1.928;2022-07-21T01:15:15;11.20;;;6.13;;
45049;SDS011;61798;48.048;-1.928;2022-07-21T01:17:22;13.43;;;6.22;;
45049;SDS011;61798;48.048;-1.928;2022-07-21T01:19:28;11.15;;;5.88;;
45049;SDS011;61798;48.048;-1.928;2022-07-21T01:21:36;15.25;;;7.18;;
45049;SDS011;61798;48.048;-1.928;2022-07-21T01:23:44;14.23;;;6.20;;
45049;SDS011;61798;48.048;-1.928;2022-07-21T01:25:50;10.48;;;6.65;;
45049;SDS011;61798;48.048;-1.928;2022-07-21T01:27:57;14.50;;;7.35;;
45049;SDS011;61798;48.048;-1.928;2022-07-21T01:30:04;12.88;;;6.97;;
45049;SDS011;61798;48.048;-1.928;2022-07-21T01:32:15;18.70;;;7.70;;
45049;SDS011;61798;48.048;-1.928;2022-07-21T01:34:21;12.38;;;6.47;;
45049;SDS011;61798;48.048;-1.928;2022-07-21T01:36:27;12.70;;;6.88;;
45049;SDS011;61798;48.048;-1.928;2022-07-21T01:38:33;13.05;;;6.93;;
45049;SDS011;61798;48.048;-1.928;2022-07-21T01:40:58;12.55;;;6.05;;
45049;SDS011;61798;48.048;-1.928;2022-07-21T01:43:22;10.85;;;6.22;;
45049;SDS011;61798;48.048;-1.928;2022-07-21T01:45:28;15.20;;;6.72;;
45049;SDS011;61798;48.048;-1.928;2022-07-21T01:47:34;10.25;;;5.95;;
45049;SDS011;61798;48.048;-1.928;2022-07-21T01:49:41;9.77;;;5.93;;
45049;SDS011;61798;48.048;-1.928;2022-07-21T01:51:47;9.15;;;5.90;;
45049;SDS011;61798;48.048;-1.928;2022-07-21T01:53:53;11.15;;;5.68;;
45049;SDS011;61798;48.048;-1.928;2022-07-21T01:56:00;11.02;;;6.18;;
45049;SDS011;61798;48.048;-1.928;2022-07-21T01:58:08;10.50;;;5.95;;
45049;SDS011;61798;48.048;-1.928;2022-07-21T02:00:14;8.75;;;5.70;;
45049;SDS011;61798;48.048;-1.928;2022-07-21T02:02:23;10.68;;;5.93;;
45049;SDS011;61798;48.048;-1.928;2022-07-21T02:04:29;12.60;;;5.78;;
45049;SDS011;61798;48.048;-1.928;2022-07-21T02:06:35;11.10;;;6.38;;
45049;SDS011;61798;48.048;-1.928;2022-07-21T02:08:41;15.75;;;6.72;;
45049;SDS011;61798;48.048;-1.928;2022-07-21T02:10:48;15.45;;;6.85;;
45049;SDS011;61798;48.048;-1.928;2022-07-21T02:13:13;17.33;;;6.20;;
45049;SDS011;61798;48.048;-1.928;2022-07-21T02:15:21;13.02;;;6.43;;
45049;SDS011;61798;48.048;-1.928;2022-07-21T02:17:28;11.82;;;5.80;;
45049;SDS011;61798;48.048;-1.928;2022-07-21T02:19:34;10.52;;;5.80;;
45049;SDS011;61798;48.048;-1.928;2022-07-21T02:21:40;8.85;;;5.57;;
45049;SDS011;61798;48.048;-1.928;2022-07-21T02:23:47;10.15;;;5.13;;
45049;SDS011;61798;48.048;-1.928;2022-07-21T02:25:53;10.57;;;5.65;;
45049;SDS011;61798;48.048;-1.928;2022-07-21T02:27:59;10.65;;;4.95;;
45049;SDS011;61798;48.048;-1.928;2022-07-21T02:30:06;9.90;;;5.10;;
45049;SDS011;61798;48.048;-1.928;2022-07-21T02:32:12;9.15;;;5.65;;
45049;SDS011;61798;48.048;-1.928;2022-07-21T02:34:18;9.45;;;5.30;;
45049;SDS011;61798;48.048;-1.928;2022-07-21T02:36:24;11.18;;;5.55;;
45049;SDS011;61798;48.048;-1.928;2022-07-21T02:38:30;11.60;;;5.00;;
45049;SDS011;61798;48.048;-1.928;2022-07-21T02:40:36;8.23;;;5.10;;
45049;SDS011;61798;48.048;-1.928;2022-07-21T02:42:42;8.00;;;5.50;;
45049;SDS011;61798;48.048;-1.928;2022-07-21T02:44:48;7.70;;;5.47;;
45049;SDS011;61798;48.048;-1.928;2022-07-21T02:46:54;10.27;;;6.40;;
45049;SDS011;61798;48.048;-1.928;2022-07-21T02:49:00;11.38;;;6.30;;
45049;SDS011;61798;48.048;-1.928;2022-07-21T02:51:06;11.50;;;6.72;;
45049;SDS011;61798;48.048;-1.928;2022-07-21T02:53:13;11.10;;;5.88;;
45049;SDS011;61798;48.048;-1.928;2022-07-21T02:55:25;10.05;;;6.00;;
45049;SDS011;61798;48.048;-1.928;2022-07-21T02:57:31;8.70;;;5.90;;
45049;SDS011;61798;48.048;-1.928;2022-07-21T02:59:37;11.65;;;5.85;;
45049;SDS011;61798;48.048;-1.928;2022-07-21T03:01:43;13.43;;;6.05;;
45049;SDS011;61798;48.048;-1.928;2022-07-21T03:03:49;10.25;;;5.43;;
45049;SDS011;61798;48.048;-1.928;2022-07-21T03:05:55;12.02;;;5.65;;
45049;SDS011;61798;48.048;-1.928;2022-07-21T03:08:02;12.90;;;5.80;;
45049;SDS011;61798;48.048;-1.928;2022-07-21T03:10:09;13.02;;;5.30;;
45049;SDS011;61798;48.048;-1.928;2022-07-21T03:12:15;13.48;;;6.35;;
45049;SDS011;61798;48.048;-1.928;2022-07-21T03:14:21;12.50;;;6.18;;
45049;SDS011;61798;48.048;-1.928;2022-07-21T03:16:27;14.23;;;6.05;;
45049;SDS011;61798;48.048;-1.928;2022-07-21T03:18:33;10.50;;;5.00;;
45049;SDS011;61798;48.048;-1.928;2022-07-21T03:20:41;8.73;;;5.20;;
45049;SDS011;61798;48.048;-1.928;2022-07-21T03:22:48;13.07;;;5.97;;
45049;SDS011;61798;48.048;-1.928;2022-07-21T03:24:54;10.60;;;5.10;;
45049;SDS011;61798;48.048;-1.928;2022-07-21T03:27:00;11.52;;;5.15;;
45049;SDS011;61798;48.048;-1.928;2022-07-21T03:29:05;9.90;;;4.60;;
45049;SDS011;61798;48.048;-1.928;2022-07-21T03:31:11;11.30;;;4.57;;
45049;SDS011;61798;48.048;-1.928;2022-07-21T03:33:17;7.20;;;4.40;;
45049;SDS011;61798;48.048;-1.928;2022-07-21T03:35:23;8.45;;;4.88;;
45049;SDS011;61798;48.048;-1.928;2022-07-21T03:37:30;8.45;;;4.50;;
45049;SDS011;61798;48.048;-1.928;2022-07-21T03:39:36;10.25;;;4.60;;
45049;SDS011;61798;48.048;-1.928;2022-07-21T03:41:42;11.30;;;5.03;;
45049;SDS011;61798;48.048;-1.928;2022-07-21T03:43:48;14.60;;;5.15;;
45049;SDS011;61798;48.048;-1.928;2022-07-21T03:45:54;10.88;;;4.70;;
45049;SDS011;61798;48.048;-1.928;2022-07-21T03:48:00;7.85;;;4.90;;
45049;SDS011;61798;48.048;-1.928;2022-07-21T03:50:08;9.80;;;4.38;;
45049;SDS011;61798;48.048;-1.928;2022-07-21T03:52:14;11.40;;;4.78;;
45049;SDS011;61798;48.048;-1.928;2022-07-21T03:54:20;8.18;;;5.07;;
45049;SDS011;61798;48.048;-1.928;2022-07-21T03:56:26;7.38;;;4.50;;
45049;SDS011;61798;48.048;-1.928;2022-07-21T03:58:32;8.63;;;5.35;;
45049;SDS011;61798;48.048;-1.928;2022-07-21T04:00:38;10.48;;;4.93;;
45049;SDS011;61798;48.048;-1.928;2022-07-21T04:02:46;10.10;;;5.00;;
45049;SDS011;61798;48.048;-1.928;2022-07-21T04:04:54;10.15;;;4.93;;
45049;SDS011;61798;48.048;-1.928;2022-07-21T04:07:00;8.05;;;4.55;;
45049;SDS011;61798;48.048;-1.928;2022-07-21T04:09:06;11.45;;;4.50;;
45049;SDS011;61798;48.048;-1.928;2022-07-21T04:11:12;9.23;;;4.80;;
45049;SDS011;61798;48.048;-1.928;2022-07-21T04:13:18;10.90;;;4.90;;
45049;SDS011;61798;48.048;-1.928;2022-07-21T04:15:24;8.18;;;4.88;;
45049;SDS011;61798;48.048;-1.928;2022-07-21T04:17:29;9.90;;;5.20;;
45049;SDS011;61798;48.048;-1.928;2022-07-21T04:19:35;10.30;;;5.07;;
45049;SDS011;61798;48.048;-1.928;2022-07-21T04:21:41;10.60;;;5.30;;
45049;SDS011;61798;48.048;-1.928;2022-07-21T04:23:47;12.90;;;5.50;;
45049;SDS011;61798;48.048;-1.928;2022-07-21T04:25:53;8.65;;;4.82;;
45049;SDS011;61798;48.048;-1.928;2022-07-21T04:28:00;10.63;;;4.88;;
45049;SDS011;61798;48.048;-1.928;2022-07-21T04:30:06;14.18;;;4.97;;
45049;SDS011;61798;48.048;-1.928;2022-07-21T04:32:15;9.50;;;5.05;;
45049;SDS011;61798;48.048;-1.928;2022-07-21T04:34:21;9.80;;;5.07;;
45049;SDS011;61798;48.048;-1.928;2022-07-21T04:36:27;12.15;;;5.22;;
45049;SDS011;61798;48.048;-1.928;2022-07-21T04:38:33;9.40;;;5.10;;
45049;SDS011;61798;48.048;-1.928;2022-07-21T04:40:39;9.20;;;5.05;;
45049;SDS011;61798;48.048;-1.928;2022-07-21T04:42:45;11.98;;;6.05;;
45049;SDS011;61798;48.048;-1.928;2022-07-21T04:44:51;11.75;;;6.05;;
45049;SDS011;61798;48.048;-1.928;2022-07-21T04:46:57;12.50;;;5.97;;
45049;SDS011;61798;48.048;-1.928;2022-07-21T04:49:03;14.48;;;6.50;;
45049;SDS011;61798;48.048;-1.928;2022-07-21T04:51:09;10.75;;;6.30;;
45049;SDS011;61798;48.048;-1.928;2022-07-21T04:53:15;9.05;;;6.03;;
45049;SDS011;61798;48.048;-1.928;2022-07-21T04:55:21;11.27;;;6.55;;
45049;SDS011;61798;48.048;-1.928;2022-07-21T04:57:27;10.57;;;6.15;;
45049;SDS011;61798;48.048;-1.928;2022-07-21T04:59:34;9.55;;;6.05;;
45049;SDS011;61798;48.048;-1.928;2022-07-21T05:01:40;10.45;;;5.47;;
45049;SDS011;61798;48.048;-1.928;2022-07-21T05:03:48;10.40;;;6.10;;
45049;SDS011;61798;48.048;-1.928;2022-07-21T05:05:54;13.77;;;6.75;;
45049;SDS011;61798;48.048;-1.928;2022-07-21T05:08:00;17.83;;;6.60;;
45049;SDS011;61798;48.048;-1.928;2022-07-21T05:10:06;14.18;;;6.38;;
45049;SDS011;61798;48.048;-1.928;2022-07-21T05:12:13;10.75;;;6.50;;
45049;SDS011;61798;48.048;-1.928;2022-07-21T05:14:19;11.25;;;6.93;;
45049;SDS011;61798;48.048;-1.928;2022-07-21T05:16:25;11.77;;;6.43;;
45049;SDS011;61798;48.048;-1.928;2022-07-21T05:18:32;11.88;;;6.00;;
45049;SDS011;61798;48.048;-1.928;2022-07-21T05:20:38;8.30;;;5.07;;
45049;SDS011;61798;48.048;-1.928;2022-07-21T05:22:44;11.00;;;5.10;;
45049;SDS011;61798;48.048;-1.928;2022-07-21T05:24:50;8.85;;;5.68;;
45049;SDS011;61798;48.048;-1.928;2022-07-21T05:26:56;10.73;;;5.93;;
45049;SDS011;61798;48.048;-1.928;2022-07-21T05:29:02;9.25;;;5.22;;
45049;SDS011;61798;48.048;-1.928;2022-07-21T05:31:08;9.55;;;5.35;;
45049;SDS011;61798;48.048;-1.928;2022-07-21T05:33:14;12.10;;;4.85;;
45049;SDS011;61798;48.048;-1.928;2022-07-21T05:35:20;9.00;;;4.55;;
45049;SDS011;61798;48.048;-1.928;2022-07-21T05:37:26;8.25;;;5.05;;
45049;SDS011;61798;48.048;-1.928;2022-07-21T05:39:32;13.20;;;4.85;;
45049;SDS011;61798;48.048;-1.928;2022-07-21T05:41:39;8.68;;;5.18;;
45049;SDS011;61798;48.048;-1.928;2022-07-21T05:43:45;11.52;;;5.13;;
45049;SDS011;61798;48.048;-1.928;2022-07-21T05:45:51;7.72;;;4.47;;
45049;SDS011;61798;48.048;-1.928;2022-07-21T05:47:57;13.10;;;5.07;;
45049;SDS011;61798;48.048;-1.928;2022-07-21T05:50:03;9.23;;;4.50;;
45049;SDS011;61798;48.048;-1.928;2022-07-21T05:52:09;7.50;;;4.55;;
45049;SDS011;61798;48.048;-1.928;2022-07-21T05:54:15;7.60;;;4.18;;
45049;SDS011;61798;48.048;-1.928;2022-07-21T05:56:21;9.18;;;4.43;;
45049;SDS011;61798;48.048;-1.928;2022-07-21T05:58:27;7.60;;;4.45;;
45049;SDS011;61798;48.048;-1.928;2022-07-21T06:00:33;6.95;;;4.20;;
45049;SDS011;61798;48.048;-1.928;2022-07-21T06:02:40;10.25;;;4.57;;
45049;SDS011;61798;48.048;-1.928;2022-07-21T06:04:49;8.55;;;4.97;;
45049;SDS011;61798;48.048;-1.928;2022-07-21T06:06:55;10.98;;;4.85;;
45049;SDS011;61798;48.048;-1.928;2022-07-21T06:09:01;12.60;;;4.75;;
45049;SDS011;61798;48.048;-1.928;2022-07-21T06:11:08;14.25;;;4.88;;
45049;SDS011;61798;48.048;-1.928;2022-07-21T06:13:17;7.43;;;4.95;;
45049;SDS011;61798;48.048;-1.928;2022-07-21T06:15:23;10.60;;;4.55;;
45049;SDS011;61798;48.048;-1.928;2022-07-21T06:17:29;10.43;;;4.40;;
45049;SDS011;61798;48.048;-1.928;2022-07-21T06:19:36;9.88;;;4.88;;
45049;SDS011;61798;48.048;-1.928;2022-07-21T06:21:42;15.73;;;4.47;;
45049;SDS011;61798;48.048;-1.928;2022-07-21T06:23:48;7.38;;;4.10;;
45049;SDS011;61798;48.048;-1.928;2022-07-21T06:25:54;6.90;;;4.18;;
45049;SDS011;61798;48.048;-1.928;2022-07-21T06:28:01;9.50;;;4.50;;
45049;SDS011;61798;48.048;-1.928;2022-07-21T06:30:07;6.22;;;3.72;;
45049;SDS011;61798;48.048;-1.928;2022-07-21T06:32:14;6.75;;;3.65;;
45049;SDS011;61798;48.048;-1.928;2022-07-21T06:34:20;9.15;;;3.47;;
45049;SDS011;61798;48.048;-1.928;2022-07-21T06:36:26;9.85;;;3.17;;
45049;SDS011;61798;48.048;-1.928;2022-07-21T06:38:32;10.90;;;4.22;;
45049;SDS011;61798;48.048;-1.928;2022-07-21T06:40:38;7.95;;;3.88;;
45049;SDS011;61798;48.048;-1.928;2022-07-21T06:42:44;8.88;;;3.60;;
45049;SDS011;61798;48.048;-1.928;2022-07-21T06:44:50;6.50;;;3.45;;
45049;SDS011;61798;48.048;-1.928;2022-07-21T06:46:56;7.15;;;3.20;;
45049;SDS011;61798;48.048;-1.928;2022-07-21T06:49:03;11.23;;;3.67;;
45049;SDS011;61798;48.048;-1.928;2022-07-21T06:51:09;6.32;;;3.35;;
45049;SDS011;61798;48.048;-1.928;2022-07-21T06:53:15;5.38;;;3.28;;
45049;SDS011;61798;48.048;-1.928;2022-07-21T06:55:21;6.70;;;3.70;;
45049;SDS011;61798;48.048;-1.928;2022-07-21T06:57:27;9.88;;;3.92;;
45049;SDS011;61798;48.048;-1.928;2022-07-21T06:59:33;5.97;;;3.58;;
45049;SDS011;61798;48.048;-1.928;2022-07-21T07:01:39;14.45;;;3.60;;
45049;SDS011;61798;48.048;-1.928;2022-07-21T07:03:45;7.97;;;3.90;;
45049;SDS011;61798;48.048;-1.928;2022-07-21T07:05:51;13.27;;;4.10;;
45049;SDS011;61798;48.048;-1.928;2022-07-21T07:07:57;6.80;;;3.25;;
45049;SDS011;61798;48.048;-1.928;2022-07-21T07:10:04;7.57;;;3.50;;
45049;SDS011;61798;48.048;-1.928;2022-07-21T07:12:10;7.50;;;3.38;;
45049;SDS011;61798;48.048;-1.928;2022-07-21T07:14:16;8.88;;;3.10;;
45049;SDS011;61798;48.048;-1.928;2022-07-21T07:16:22;7.47;;;4.28;;
45049;SDS011;61798;48.048;-1.928;2022-07-21T07:18:28;7.28;;;3.28;;
45049;SDS011;61798;48.048;-1.928;2022-07-21T07:20:34;11.32;;;3.65;;
45049;SDS011;61798;48.048;-1.928;2022-07-21T07:22:40;9.20;;;3.70;;
45049;SDS011;61798;48.048;-1.928;2022-07-21T07:24:46;6.95;;;3.70;;
45049;SDS011;61798;48.048;-1.928;2022-07-21T07:26:52;8.85;;;4.32;;
45049;SDS011;61798;48.048;-1.928;2022-07-21T07:28:58;6.90;;;3.80;;
45049;SDS011;61798;48.048;-1.928;2022-07-21T07:31:04;9.18;;;3.85;;
45049;SDS011;61798;48.048;-1.928;2022-07-21T07:33:10;9.32;;;3.40;;
45049;SDS011;61798;48.048;-1.928;2022-07-21T07:35:16;12.00;;;3.88;;
45049;SDS011;61798;48.048;-1.928;2022-07-21T07:37:22;6.78;;;3.42;;
45049;SDS011;61798;48.048;-1.928;2022-07-21T07:39:29;5.18;;;2.88;;
45049;SDS011;61798;48.048;-1.928;2022-07-21T07:41:35;12.13;;;4.22;;
45049;SDS011;61798;48.048;-1.928;2022-07-21T07:43:41;7.03;;;3.88;;
45049;SDS011;61798;48.048;-1.928;2022-07-21T07:45:47;6.85;;;3.70;;
45049;SDS011;61798;48.048;-1.928;2022-07-21T07:47:53;7.18;;;3.70;;
45049;SDS011;61798;48.048;-1.928;2022-07-21T07:49:59;8.15;;;3.53;;
45049;SDS011;61798;48.048;-1.928;2022-07-21T07:52:05;8.75;;;3.78;;
45049;SDS011;61798;48.048;-1.928;2022-07-21T07:54:11;13.90;;;4.68;;
45049;SDS011;61798;48.048;-1.928;2022-07-21T07:56:17;9.63;;;3.95;;
45049;SDS011;61798;48.048;-1.928;2022-07-21T07:58:23;10.18;;;4.15;;
45049;SDS011;61798;48.048;-1.928;2022-07-21T08:00:29;9.00;;;4.40;;
45049;SDS011;61798;48.048;-1.928;2022-07-21T08:02:35;7.35;;;4.38;;
45049;SDS011;61798;48.048;-1.928;2022-07-21T08:04:41;5.50;;;3.70;;
45049;SDS011;61798;48.048;-1.928;2022-07-21T08:06:47;11.45;;;3.80;;
45049;SDS011;61798;48.048;-1.928;2022-07-21T08:08:53;8.25;;;4.00;;
45049;SDS011;61798;48.048;-1.928;2022-07-21T08:11:00;5.57;;;3.50;;
45049;SDS011;61798;48.048;-1.928;2022-07-21T08:13:06;6.05;;;3.53;;
45049;SDS011;61798;48.048;-1.928;2022-07-21T08:15:13;6.03;;;3.50;;
45049;SDS011;61798;48.048;-1.928;2022-07-21T08:17:21;6.70;;;3.03;;
45049;SDS011;61798;48.048;-1.928;2022-07-21T08:19:28;9.70;;;3.78;;
45049;SDS011;61798;48.048;-1.928;2022-07-21T08:21:34;7.38;;;4.05;;
45049;SDS011;61798;48.048;-1.928;2022-07-21T08:23:40;8.88;;;3.53;;
45049;SDS011;61798;48.048;-1.928;2022-07-21T08:25:46;9.23;;;3.80;;
45049;SDS011;61798;48.048;-1.928;2022-07-21T08:27:52;6.63;;;3.35;;
45049;SDS011;61798;48.048;-1.928;2022-07-21T08:29:58;6.88;;;3.40;;
45049;SDS011;61798;48.048;-1.928;2022-07-21T08:32:04;8.38;;;3.25;;
45049;SDS011;61798;48.048;-1.928;2022-07-21T08:34:10;6.68;;;3.47;;
45049;SDS011;61798;48.048;-1.928;2022-07-21T08:36:16;5.75;;;3.65;;
45049;SDS011;61798;48.048;-1.928;2022-07-21T08:38:23;7.85;;;3.90;;
45049;SDS011;61798;48.048;-1.928;2022-07-21T08:40:30;5.82;;;3.55;;
45049;SDS011;61798;48.048;-1.928;2022-07-21T08:42:38;10.30;;;3.90;;
45049;SDS011;61798;48.048;-1.928;2022-07-21T08:44:44;5.97;;;3.50;;
45049;SDS011;61798;48.048;-1.928;2022-07-21T08:46:50;10.98;;;3.58;;
45049;SDS011;61798;48.048;-1.928;2022-07-21T08:48:56;7.47;;;3.70;;
45049;SDS011;61798;48.048;-1.928;2022-07-21T08:51:04;6.47;;;4.00;;
45049;SDS011;61798;48.048;-1.928;2022-07-21T08:53:10;6.68;;;3.50;;
45049;SDS011;61798;48.048;-1.928;2022-07-21T08:55:22;6.35;;;3.08;;
45049;SDS011;61798;48.048;-1.928;2022-07-21T08:57:29;6.72;;;3.20;;
45049;SDS011;61798;48.048;-1.928;2022-07-21T08:59:35;7.68;;;3.03;;
45049;SDS011;61798;48.048;-1.928;2022-07-21T09:01:42;5.47;;;3.80;;
45049;SDS011;61798;48.048;-1.928;2022-07-21T09:03:48;7.07;;;3.50;;
45049;SDS011;61798;48.048;-1.928;2022-07-21T09:06:01;6.05;;;3.33;;
45049;SDS011;61798;48.048;-1.928;2022-07-21T09:08:13;7.03;;;3.58;;
45049;SDS011;61798;48.048;-1.928;2022-07-21T09:10:22;5.03;;;3.47;;
45049;SDS011;61798;48.048;-1.928;2022-07-21T09:12:29;6.38;;;3.17;;
45049;SDS011;61798;48.048;-1.928;2022-07-21T09:14:35;5.07;;;3.03;;
45049;SDS011;61798;48.048;-1.928;2022-07-21T09:16:43;4.88;;;2.67;;
45049;SDS011;61798;48.048;-1.928;2022-07-21T09:18:51;4.40;;;2.90;;
45049;SDS011;61798;48.048;-1.928;2022-07-21T09:20:57;7.07;;;2.85;;
45049;SDS011;61798;48.048;-1.928;2022-07-21T09:23:10;5.07;;;2.80;;
45049;SDS011;61798;48.048;-1.928;2022-07-21T09:25:32;6.05;;;3.00;;
45049;SDS011;61798;48.048;-1.928;2022-07-21T09:27:42;3.42;;;2.75;;
45049;SDS011;61798;48.048;-1.928;2022-07-21T09:29:53;5.22;;;2.95;;
45049;SDS011;61798;48.048;-1.928;2022-07-21T09:32:20;6.72;;;2.65;;
45049;SDS011;61798;48.048;-1.928;2022-07-21T09:34:36;3.50;;;2.40;;
45049;SDS011;61798;48.048;-1.928;2022-07-21T09:36:58;3.00;;;2.50;;
45049;SDS011;61798;48.048;-1.928;2022-07-21T09:39:04;4.70;;;2.63;;
45049;SDS011;61798;48.048;-1.928;2022-07-21T09:41:15;6.90;;;2.72;;
45049;SDS011;61798;48.048;-1.928;2022-07-21T09:43:28;5.90;;;2.50;;
45049;SDS011;61798;48.048;-1.928;2022-07-21T09:45:38;2.92;;;2.30;;
45049;SDS011;61798;48.048;-1.928;2022-07-21T09:47:46;3.58;;;2.22;;
45049;SDS011;61798;48.048;-1.928;2022-07-21T09:49:53;5.55;;;2.42;;
45049;SDS011;61798;48.048;-1.928;2022-07-21T09:52:00;3.67;;;2.20;;
45049;SDS011;61798;48.048;-1.928;2022-07-21T09:54:07;4.65;;;2.45;;
45049;SDS011;61798;48.048;-1.928;2022-07-21T09:56:19;3.40;;;2.50;;
45049;SDS011;61798;48.048;-1.928;2022-07-21T09:58:25;3.67;;;2.20;;
45049;SDS011;61798;48.048;-1.928;2022-07-21T10:00:32;3.63;;;2.40;;
45049;SDS011;61798;48.048;-1.928;2022-07-21T10:02:39;6.32;;;2.42;;
45049;SDS011;61798;48.048;-1.928;2022-07-21T10:04:46;3.10;;;2.25;;
45049;SDS011;61798;48.048;-1.928;2022-07-21T10:06:55;3.90;;;2.42;;
45049;SDS011;61798;48.048;-1.928;2022-07-21T10:09:03;2.88;;;1.92;;
45049;SDS011;61798;48.048;-1.928;2022-07-21T10:11:14;5.03;;;2.40;;
45049;SDS011;61798;48.048;-1.928;2022-07-21T10:13:21;4.60;;;2.13;;
45049;SDS011;61798;48.048;-1.928;2022-07-21T10:15:28;4.05;;;2.33;;
45049;SDS011;61798;48.048;-1.928;2022-07-21T10:17:36;3.75;;;2.45;;
45049;SDS011;61798;48.048;-1.928;2022-07-21T10:24:59;3.80;;;2.55;;
45049;SDS011;61798;48.048;-1.928;2022-07-21T10:27:07;3.10;;;2.13;;
45049;SDS011;61798;48.048;-1.928;2022-07-21T10:29:48;3.55;;;2.42;;
45049;SDS011;61798;48.048;-1.928;2022-07-21T10:31:52;5.00;;;2.10;;
45049;SDS011;61798;48.048;-1.928;2022-07-21T10:34:15;3.00;;;2.10;;
45049;SDS011;61798;48.048;-1.928;2022-07-21T10:36:40;3.63;;;2.10;;
45049;SDS011;61798;48.048;-1.928;2022-07-21T10:38:47;3.33;;;2.17;;
45049;SDS011;61798;48.048;-1.928;2022-07-21T10:40:53;5.22;;;2.30;;
45049;SDS011;61798;48.048;-1.928;2022-07-21T10:45:16;3.85;;;2.50;;
45049;SDS011;61798;48.048;-1.928;2022-07-21T10:47:41;6.45;;;2.03;;
45049;SDS011;61798;48.048;-1.928;2022-07-21T10:52:04;3.88;;;2.20;;
45049;SDS011;61798;48.048;-1.928;2022-07-21T10:54:17;3.05;;;1.80;;
45049;SDS011;61798;48.048;-1.928;2022-07-21T10:56:28;5.70;;;2.15;;
45049;SDS011;61798;48.048;-1.928;2022-07-21T10:58:37;4.25;;;2.35;;
45049;SDS011;61798;48.048;-1.928;2022-07-21T11:03:01;3.70;;;2.17;;
45049;SDS011;61798;48.048;-1.928;2022-07-21T11:05:09;2.55;;;1.88;;
45049;SDS011;61798;48.048;-1.928;2022-07-21T11:07:15;4.38;;;1.90;;
45049;SDS011;61798;48.048;-1.928;2022-07-21T11:09:21;2.17;;;1.88;;
45049;SDS011;61798;48.048;-1.928;2022-07-21T11:11:27;4.65;;;2.53;;
45049;SDS011;61798;48.048;-1.928;2022-07-21T11:16:04;3.60;;;2.13;;
45049;SDS011;61798;48.048;-1.928;2022-07-21T11:18:10;4.47;;;2.05;;
45049;SDS011;61798;48.048;-1.928;2022-07-21T11:20:16;4.32;;;2.50;;
45049;SDS011;61798;48.048;-1.928;2022-07-21T11:22:23;4.30;;;2.25;;
45049;SDS011;61798;48.048;-1.928;2022-07-21T11:24:31;4.30;;;1.90;;
45049;SDS011;61798;48.048;-1.928;2022-07-21T11:26:38;3.17;;;2.00;;
45049;SDS011;61798;48.048;-1.928;2022-07-21T11:28:44;4.50;;;1.92;;
45049;SDS011;61798;48.048;-1.928;2022-07-21T11:31:05;5.65;;;2.20;;
45049;SDS011;61798;48.048;-1.928;2022-07-21T11:33:20;3.10;;;2.00;;
45049;SDS011;61798;48.048;-1.928;2022-07-21T11:37:38;4.97;;;1.92;;
45049;SDS011;61798;48.048;-1.928;2022-07-21T11:39:46;6.30;;;2.10;;
45049;SDS011;61798;48.048;-1.928;2022-07-21T11:41:52;2.30;;;1.88;;
45049;SDS011;61798;48.048;-1.928;2022-07-21T11:44:00;5.63;;;1.83;;
45049;SDS011;61798;48.048;-1.928;2022-07-21T11:46:06;5.95;;;1.90;;
45049;SDS011;61798;48.048;-1.928;2022-07-21T11:48:12;3.17;;;2.03;;
45049;SDS011;61798;48.048;-1.928;2022-07-21T11:50:18;1.80;;;1.65;;
45049;SDS011;61798;48.048;-1.928;2022-07-21T11:52:29;4.38;;;2.10;;
45049;SDS011;61798;48.048;-1.928;2022-07-21T11:54:42;2.85;;;1.77;;
45049;SDS011;61798;48.048;-1.928;2022-07-21T11:56:53;4.45;;;1.92;;
45049;SDS011;61798;48.048;-1.928;2022-07-21T11:59:10;13.75;;;6.55;;
45049;SDS011;61798;48.048;-1.928;2022-07-21T12:01:16;9.45;;;4.00;;
45049;SDS011;61798;48.048;-1.928;2022-07-21T12:03:23;4.15;;;2.35;;
45049;SDS011;61798;48.048;-1.928;2022-07-21T12:05:31;6.40;;;2.78;;
45049;SDS011;61798;48.048;-1.928;2022-07-21T12:07:40;3.30;;;1.85;;
45049;SDS011;61798;48.048;-1.928;2022-07-21T12:10:02;2.67;;;1.83;;
45049;SDS011;61798;48.048;-1.928;2022-07-21T12:12:11;2.17;;;1.95;;
45049;SDS011;61798;48.048;-1.928;2022-07-21T12:14:17;2.67;;;1.95;;
45049;SDS011;61798;48.048;-1.928;2022-07-21T12:16:25;2.75;;;2.13;;
45049;SDS011;61798;48.048;-1.928;2022-07-21T12:18:31;5.03;;;2.10;;
45049;SDS011;61798;48.048;-1.928;2022-07-21T12:20:38;2.70;;;1.98;;
45049;SDS011;61798;48.048;-1.928;2022-07-21T12:22:46;3.33;;;2.00;;
45049;SDS011;61798;48.048;-1.928;2022-07-21T12:24:54;4.03;;;1.77;;
45049;SDS011;61798;48.048;-1.928;2022-07-21T12:27:10;3.38;;;1.90;;
45049;SDS011;61798;48.048;-1.928;2022-07-21T12:29:24;3.65;;;2.20;;
45049;SDS011;61798;48.048;-1.928;2022-07-21T12:31:35;3.28;;;2.00;;
45049;SDS011;61798;48.048;-1.928;2022-07-21T12:33:41;3.63;;;2.97;;
45049;SDS011;61798;48.048;-1.928;2022-07-21T12:35:58;15.95;;;4.13;;
45049;SDS011;61798;48.048;-1.928;2022-07-21T12:38:08;6.63;;;4.20;;
45049;SDS011;61798;48.048;-1.928;2022-07-21T12:40:18;6.57;;;4.18;;
45049;SDS011;61798;48.048;-1.928;2022-07-21T12:42:30;7.68;;;3.70;;
45049;SDS011;61798;48.048;-1.928;2022-07-21T12:44:40;6.45;;;3.83;;
45049;SDS011;61798;48.048;-1.928;2022-07-21T12:46:46;5.35;;;3.60;;
45049;SDS011;61798;48.048;-1.928;2022-07-21T12:48:52;8.48;;;2.40;;